Time;durP1;ratioP1;P1;durP2;ratioP2;P2;SDS_P1;SDS_P2;PMS_P1;PMS_P2;Temp;Humidity;BMP_temperature;BMP_pressure;BME280_temperature;BME280_humidity;BME280_pressure;Samples;Min_cycle;Max_cycle;Signal;HPM_P1;HPM_P2
2021/03/18 00:01:57;;;;;;;23.30;14.40;;;6.50;59.60;;;;;;5011817;28;20346;-69
2021/03/18 00:04:23;;;;;;;22.63;13.05;;;6.50;59.50;;;;;;5007969;28;20424;-69
2021/03/18 00:06:49;;;;;;;21.38;13.88;;;6.60;59.10;;;;;;5011288;28;20038;-68
2021/03/18 00:09:18;;;;;;;20.50;13.15;;;6.50;59.50;;;;;;5012562;28;20045;-69
2021/03/18 00:11:46;;;;;;;21.50;14.30;;;6.60;59.20;;;;;;5011418;28;20113;-68
2021/03/18 00:14:15;;;;;;;21.10;13.35;;;6.50;58.80;;;;;;5011443;28;20038;-68
2021/03/18 00:16:42;;;;;;;21.23;13.38;;;6.50;58.80;;;;;;5010979;28;20030;-70
2021/03/18 00:19:08;;;;;;;21.17;13.48;;;6.50;58.20;;;;;;5006386;28;20375;-69
2021/03/18 00:21:34;;;;;;;22.02;13.55;;;6.60;58.40;;;;;;5012632;28;20053;-69
2021/03/18 00:24:00;;;;;;;23.05;14.05;;;6.70;58.30;;;;;;5010645;28;20034;-70
2021/03/18 00:26:28;;;;;;;21.17;12.68;;;6.80;58.00;;;;;;5027478;28;20037;-70
2021/03/18 00:28:54;;;;;;;20.15;12.95;;;6.80;57.80;;;;;;5014730;28;20084;-69
2021/03/18 00:31:25;;;;;;;19.65;13.25;;;6.90;57.50;;;;;;5011900;28;20030;-67
2021/03/18 00:33:52;;;;;;;20.90;14.02;;;7.00;57.40;;;;;;5012025;28;20062;-68
2021/03/18 00:36:18;;;;;;;20.77;13.40;;;7.00;57.00;;;;;;5012401;28;20029;-68
2021/03/18 00:38:45;;;;;;;20.17;13.35;;;7.00;56.90;;;;;;5011618;28;20052;-72
2021/03/18 00:41:11;;;;;;;20.13;13.02;;;6.90;57.10;;;;;;5010689;28;20459;-69
2021/03/18 00:43:38;;;;;;;22.45;12.98;;;6.90;57.30;;;;;;5012388;28;20068;-69
2021/03/18 00:46:04;;;;;;;20.42;13.45;;;6.90;57.20;;;;;;5011375;28;20041;-69
2021/03/18 00:48:32;;;;;;;22.27;13.70;;;6.90;56.70;;;;;;5011806;28;20032;-70
2021/03/18 00:51:03;;;;;;;19.08;12.80;;;6.90;56.90;;;;;;5010615;28;20026;-69
2021/03/18 00:53:30;;;;;;;20.58;13.18;;;7.00;56.80;;;;;;5012224;28;20030;-71
2021/03/18 00:55:56;;;;;;;22.90;14.70;;;7.00;56.80;;;;;;5010117;28;20061;-69
2021/03/18 00:58:22;;;;;;;23.95;13.75;;;7.10;56.40;;;;;;5009795;28;20044;-69
2021/03/18 01:00:50;;;;;;;19.88;12.82;;;7.10;56.70;;;;;;5008959;28;20482;-74
2021/03/18 01:03:17;;;;;;;19.13;11.88;;;7.20;56.50;;;;;;4994572;28;20486;-68
2021/03/18 01:05:48;;;;;;;21.80;12.88;;;7.20;56.10;;;;;;5011627;28;20034;-68
2021/03/18 01:08:15;;;;;;;22.02;12.63;;;7.10;55.90;;;;;;5011424;28;20025;-70
2021/03/18 01:10:48;;;;;;;20.55;13.20;;;7.20;55.90;;;;;;5009432;28;20031;-68
2021/03/18 01:13:19;;;;;;;19.77;12.77;;;7.10;55.80;;;;;;5009848;28;20034;-69
2021/03/18 01:15:53;;;;;;;21.30;13.30;;;7.20;55.70;;;;;;5011783;28;20481;-69
2021/03/18 01:18:22;;;;;;;19.60;12.80;;;7.10;55.40;;;;;;5011301;28;20109;-69
2021/03/18 01:20:49;;;;;;;21.92;12.52;;;7.10;55.50;;;;;;5010517;28;20088;-70
2021/03/18 01:23:14;;;;;;;21.83;12.80;;;7.10;55.50;;;;;;5010117;28;20084;-69
2021/03/18 01:25:40;;;;;;;21.23;12.68;;;7.00;55.40;;;;;;5011691;28;20038;-69
2021/03/18 01:28:09;;;;;;;21.08;13.30;;;7.00;55.50;;;;;;5010382;28;20546;-69
2021/03/18 01:30:39;;;;;;;18.77;12.57;;;7.00;55.60;;;;;;5012433;28;20088;-69
2021/03/18 01:33:07;;;;;;;20.83;13.32;;;7.00;55.60;;;;;;5017263;28;20041;-69
2021/03/18 01:35:34;;;;;;;16.90;11.80;;;6.90;55.60;;;;;;5001801;28;20109;-69
2021/03/18 01:38:00;;;;;;;21.08;12.88;;;6.90;55.50;;;;;;5017699;28;20100;-68
2021/03/18 01:40:29;;;;;;;19.23;12.25;;;6.90;55.50;;;;;;5015632;28;20475;-70
2021/03/18 01:42:56;;;;;;;20.90;13.13;;;6.90;55.60;;;;;;5017991;28;20032;-70
2021/03/18 01:45:23;;;;;;;20.70;12.90;;;6.90;55.60;;;;;;5017610;28;20026;-69
2021/03/18 01:47:52;;;;;;;20.27;12.32;;;7.00;55.70;;;;;;5016545;28;20120;-72
2021/03/18 01:50:20;;;;;;;22.48;14.20;;;7.00;55.50;;;;;;5016212;28;20053;-69
2021/03/18 01:52:46;;;;;;;20.20;13.52;;;7.00;55.60;;;;;;5017784;28;20045;-69
2021/03/18 01:55:19;;;;;;;20.25;13.98;;;7.00;55.40;;;;;;5016888;28;20025;-69
2021/03/18 01:57:46;;;;;;;24.63;13.25;;;6.90;55.40;;;;;;5011849;28;20108;-70
2021/03/18 02:00:13;;;;;;;20.27;13.30;;;6.90;55.40;;;;;;5016919;28;20029;-69
2021/03/18 02:02:39;;;;;;;19.52;13.13;;;6.90;55.70;;;;;;5015218;28;20029;-69
2021/03/18 02:05:05;;;;;;;22.25;14.10;;;6.90;55.80;;;;;;5034020;22;20062;-59
2021/03/18 02:07:31;;;;;;;21.65;13.75;;;6.90;56.00;;;;;;4986552;28;20041;-61
2021/03/18 02:09:57;;;;;;;19.80;13.00;;;6.90;56.00;;;;;;5009435;28;20026;-61
2021/03/18 02:12:22;;;;;;;19.75;13.55;;;6.90;56.10;;;;;;5003723;28;20038;-64
2021/03/18 02:14:49;;;;;;;21.63;14.18;;;6.90;56.10;;;;;;4997643;28;20041;-60
2021/03/18 02:17:28;;;;;;;21.63;13.68;;;6.90;56.00;;;;;;4997386;28;20045;-60
2021/03/18 02:20:12;;;;;;;21.30;14.93;;;6.90;56.20;;;;;;5001250;28;20051;-63
2021/03/18 02:23:00;;;;;;;21.92;15.35;;;6.80;56.10;;;;;;5003766;28;20472;-60
2021/03/18 02:25:41;;;;;;;21.67;14.80;;;6.80;56.00;;;;;;4997077;28;20030;-60
2021/03/18 02:28:46;;;;;;;23.65;14.82;;;6.90;56.20;;;;;;4997620;28;20038;-61
2021/03/18 02:31:21;;;;;;;22.85;14.88;;;6.90;56.10;;;;;;4978327;28;20084;-60
2021/03/18 02:34:05;;;;;;;22.83;15.07;;;6.80;56.10;;;;;;5009731;28;20045;-61
2021/03/18 02:36:40;;;;;;;23.65;14.38;;;6.80;56.20;;;;;;4999290;28;20566;-61
2021/03/18 02:39:12;;;;;;;23.13;15.10;;;6.80;56.20;;;;;;5012442;28;20076;-60
2021/03/18 02:41:48;;;;;;;23.08;14.50;;;6.80;56.10;;;;;;5014283;28;20025;-61
2021/03/18 02:44:24;;;;;;;25.70;15.57;;;6.80;56.00;;;;;;4996861;28;20139;-61
2021/03/18 02:46:56;;;;;;;23.05;15.68;;;6.80;56.30;;;;;;4993417;28;20104;-61
2021/03/18 02:49:23;;;;;;;21.52;14.63;;;6.70;56.30;;;;;;5003595;28;20478;-61
2021/03/18 02:51:51;;;;;;;22.77;15.63;;;6.70;56.50;;;;;;5012061;28;20046;-60
2021/03/18 02:54:19;;;;;;;21.77;15.40;;;6.70;56.50;;;;;;4992169;28;20037;-60
2021/03/18 02:56:48;;;;;;;23.92;15.70;;;6.70;56.30;;;;;;4994939;28;20038;-60
2021/03/18 02:59:19;;;;;;;23.70;16.00;;;6.80;56.30;;;;;;4998602;28;20045;-60
2021/03/18 03:01:46;;;;;;;23.30;15.48;;;6.80;56.10;;;;;;4994011;28;20030;-59
2021/03/18 03:04:14;;;;;;;25.48;15.43;;;6.90;56.20;;;;;;5004213;28;20113;-60
2021/03/18 03:06:42;;;;;;;22.73;14.95;;;6.80;56.00;;;;;;5002157;28;20046;-60
2021/03/18 03:09:08;;;;;;;21.77;15.10;;;6.80;56.30;;;;;;5005488;28;20156;-60
2021/03/18 03:11:36;;;;;;;24.75;15.35;;;6.70;56.30;;;;;;5013455;28;20479;-60
2021/03/18 03:14:03;;;;;;;23.92;15.20;;;6.70;56.10;;;;;;5008241;28;20474;-61
2021/03/18 03:16:30;;;;;;;24.20;15.63;;;6.70;56.60;;;;;;5011330;28;20025;-61
2021/03/18 03:18:57;;;;;;;22.95;15.45;;;6.70;56.60;;;;;;5012351;28;20127;-60
2021/03/18 03:21:24;;;;;;;23.65;15.23;;;6.70;56.60;;;;;;5012930;28;20061;-60
2021/03/18 03:23:51;;;;;;;25.10;16.38;;;6.70;56.30;;;;;;5004458;28;20034;-61
2021/03/18 03:26:21;;;;;;;26.80;15.55;;;6.60;56.30;;;;;;4992301;28;20288;-59
2021/03/18 03:28:48;;;;;;;24.02;15.30;;;6.60;56.30;;;;;;4994263;28;20069;-60
2021/03/18 03:31:15;;;;;;;23.30;15.32;;;6.70;56.50;;;;;;5011535;28;20101;-60
2021/03/18 03:33:41;;;;;;;21.38;15.45;;;6.70;56.30;;;;;;5009851;28;20026;-58
2021/03/18 03:36:07;;;;;;;25.85;15.30;;;6.60;56.30;;;;;;5004581;28;20038;-61
2021/03/18 03:38:33;;;;;;;22.15;15.02;;;6.70;56.20;;;;;;5002359;28;20073;-60
2021/03/18 03:41:18;;;;;;;25.08;15.80;;;6.70;56.30;;;;;;4996487;28;20077;-61
2021/03/18 03:43:44;;;;;;;24.40;15.32;;;6.70;56.30;;;;;;4980174;28;20085;-59
2021/03/18 03:46:09;;;;;;;24.30;16.05;;;6.60;56.20;;;;;;4993280;28;20070;-60
2021/03/18 03:48:35;;;;;;;27.73;15.52;;;6.70;56.30;;;;;;4993667;28;20037;-60
2021/03/18 03:51:02;;;;;;;22.55;14.98;;;6.70;56.60;;;;;;4999508;28;20026;-61
2021/03/18 03:53:44;;;;;;;23.13;14.65;;;6.60;56.20;;;;;;5003928;28;20081;-62
2021/03/18 03:56:32;;;;;;;21.75;15.35;;;6.70;56.20;;;;;;4995686;28;20038;-60
2021/03/18 03:59:07;;;;;;;23.80;15.07;;;6.70;56.10;;;;;;5001010;28;20109;-60
2021/03/18 04:01:43;;;;;;;22.48;15.18;;;6.70;56.00;;;;;;4993739;28;20026;-61
2021/03/18 04:04:41;;;;;;;23.02;15.43;;;6.60;56.10;;;;;;4997648;28;20108;-63
2021/03/18 04:07:14;;;;;;;23.27;15.60;;;6.60;56.30;;;;;;4995723;28;20229;-61
2021/03/18 04:09:42;;;;;;;25.00;14.90;;;6.50;56.50;;;;;;4993297;28;20030;-61
2021/03/18 04:12:09;;;;;;;23.33;15.32;;;6.50;56.50;;;;;;4992568;28;20019;-61
2021/03/18 04:14:37;;;;;;;26.25;16.08;;;6.50;56.50;;;;;;4999136;28;20255;-60
2021/03/18 04:17:07;;;;;;;23.27;15.93;;;6.50;56.50;;;;;;5006902;28;20046;-62
2021/03/18 04:19:34;;;;;;;24.30;16.67;;;6.60;57.30;;;;;;5002123;28;20057;-60
2021/03/18 04:22:01;;;;;;;24.08;15.50;;;6.50;57.30;;;;;;5003159;28;20026;-69
2021/03/18 04:24:28;;;;;;;27.92;16.08;;;6.40;57.40;;;;;;5010564;28;20061;-60
2021/03/18 04:26:55;;;;;;;25.30;16.63;;;6.40;57.70;;;;;;5010318;28;20110;-60
2021/03/18 04:29:21;;;;;;;25.58;16.98;;;6.40;57.90;;;;;;5007723;28;20044;-60
2021/03/18 04:31:47;;;;;;;26.85;16.88;;;6.30;57.50;;;;;;5010165;28;20479;-60
2021/03/18 04:34:16;;;;;;;23.40;15.43;;;6.30;57.70;;;;;;4996441;28;20066;-61
2021/03/18 04:36:44;;;;;;;24.13;16.58;;;6.30;57.50;;;;;;4994638;28;20026;-61
2021/03/18 04:39:10;;;;;;;23.05;16.10;;;6.20;57.70;;;;;;5001393;28;20517;-61
2021/03/18 04:41:37;;;;;;;26.85;17.27;;;6.20;57.80;;;;;;4994002;28;20112;-61
2021/03/18 04:44:07;;;;;;;23.08;16.33;;;6.30;57.70;;;;;;4992615;28;20042;-60
2021/03/18 04:46:35;;;;;;;24.13;16.40;;;6.20;57.70;;;;;;5007804;28;20034;-60
2021/03/18 04:49:02;;;;;;;25.52;16.42;;;6.30;57.80;;;;;;5004090;28;20110;-61
2021/03/18 04:51:28;;;;;;;24.48;16.05;;;6.40;57.80;;;;;;5004857;28;20025;-60
2021/03/18 04:53:55;;;;;;;24.25;17.25;;;6.30;57.70;;;;;;5004424;28;20037;-60
2021/03/18 04:56:20;;;;;;;23.80;16.23;;;6.20;57.80;;;;;;4986694;28;20121;-60
2021/03/18 04:58:47;;;;;;;26.33;17.33;;;6.20;57.80;;;;;;4995435;28;20113;-63
2021/03/18 05:01:15;;;;;;;26.05;17.48;;;6.20;58.00;;;;;;4998705;28;20077;-60
2021/03/18 05:03:42;;;;;;;23.13;16.20;;;6.20;58.00;;;;;;5001955;28;20117;-60
2021/03/18 05:06:09;;;;;;;26.35;17.58;;;6.20;58.10;;;;;;5016165;28;20114;-60
2021/03/18 05:08:38;;;;;;;29.23;17.20;;;6.20;57.90;;;;;;4991822;28;20065;-61
2021/03/18 05:11:04;;;;;;;24.13;16.08;;;6.20;57.80;;;;;;5001671;28;20031;-60
2021/03/18 05:13:30;;;;;;;26.27;16.02;;;6.20;58.00;;;;;;4990635;28;21365;-61
2021/03/18 05:15:58;;;;;;;25.88;16.17;;;6.20;57.90;;;;;;4992206;28;20463;-59
2021/03/18 05:18:25;;;;;;;23.20;15.68;;;6.30;57.90;;;;;;4997326;28;20314;-60
2021/03/18 05:20:53;;;;;;;29.52;16.95;;;6.30;57.60;;;;;;5007072;28;20378;-60
2021/03/18 05:23:19;;;;;;;28.48;17.27;;;6.40;57.40;;;;;;5001694;28;20109;-60
2021/03/18 05:25:46;;;;;;;22.80;15.73;;;6.30;57.30;;;;;;4991890;28;20057;-64
2021/03/18 05:28:13;;;;;;;25.08;16.38;;;6.30;57.40;;;;;;4988016;28;20053;-61
2021/03/18 05:30:39;;;;;;;24.00;16.63;;;6.30;57.30;;;;;;4997113;28;20102;-63
2021/03/18 05:33:05;;;;;;;23.90;16.23;;;6.40;57.30;;;;;;4992627;28;20531;-66
2021/03/18 05:35:32;;;;;;;25.88;16.65;;;6.40;57.00;;;;;;4986337;28;20037;-61
2021/03/18 05:37:58;;;;;;;26.65;18.05;;;6.50;57.00;;;;;;5005348;28;20041;-61
2021/03/18 05:40:24;;;;;;;27.58;17.35;;;6.50;56.70;;;;;;5000324;28;20030;-61
2021/03/18 05:42:50;;;;;;;28.23;17.35;;;6.60;56.50;;;;;;5003885;28;20061;-61
2021/03/18 05:45:18;;;;;;;25.58;17.42;;;6.60;56.50;;;;;;4991245;28;20061;-61
2021/03/18 05:47:45;;;;;;;29.20;18.02;;;6.60;56.40;;;;;;4994812;28;20062;-61
2021/03/18 05:50:17;;;;;;;32.47;18.00;;;6.70;56.40;;;;;;4990845;28;20066;-61
2021/03/18 05:52:43;;;;;;;35.20;17.90;;;6.70;56.20;;;;;;4994976;28;20037;-60
2021/03/18 05:55:10;;;;;;;26.75;17.92;;;6.90;56.20;;;;;;4989798;28;20052;-60
2021/03/18 05:57:37;;;;;;;27.45;17.80;;;6.90;55.80;;;;;;4991260;28;20035;-60
2021/03/18 06:00:09;;;;;;;25.65;16.30;;;6.90;55.90;;;;;;4991522;28;20022;-59
2021/03/18 06:02:36;;;;;;;25.40;16.67;;;6.90;55.60;;;;;;4993944;28;20444;-60
2021/03/18 06:05:09;;;;;;;26.80;17.25;;;7.00;55.40;;;;;;4993803;28;20051;-59
2021/03/18 06:07:40;;;;;;;24.90;17.38;;;7.20;56.10;;;;;;4991195;28;20038;-61
2021/03/18 06:10:09;;;;;;;33.92;18.70;;;7.30;55.10;;;;;;4990398;28;20066;-70
2021/03/18 06:12:41;;;;;;;29.20;19.17;;;7.40;54.80;;;;;;4989760;28;20356;-62
2021/03/18 06:15:09;;;;;;;27.20;17.80;;;7.50;54.60;;;;;;5008807;28;20034;-71
2021/03/18 06:17:36;;;;;;;28.15;17.63;;;7.60;54.30;;;;;;4993787;28;20049;-60
2021/03/18 06:20:04;;;;;;;30.42;19.23;;;7.60;53.90;;;;;;4994505;28;20106;-60
2021/03/18 06:22:40;;;;;;;28.83;18.77;;;7.70;53.60;;;;;;4975439;28;20039;-60
2021/03/18 06:25:28;;;;;;;24.70;17.73;;;7.80;53.40;;;;;;5009359;28;20026;-60
2021/03/18 06:28:15;;;;;;;26.08;18.38;;;7.80;53.30;;;;;;4982351;28;20046;-61
2021/03/18 06:30:54;;;;;;;29.73;17.85;;;8.00;53.00;;;;;;4982632;28;20041;-61
2021/03/18 06:33:22;;;;;;;29.50;18.80;;;7.90;52.80;;;;;;4992949;28;20053;-62
2021/03/18 06:35:48;;;;;;;27.77;18.02;;;7.90;52.90;;;;;;4974098;28;20066;-61
2021/03/18 06:38:14;;;;;;;27.58;17.45;;;7.90;52.70;;;;;;4990394;28;20026;-62
2021/03/18 06:40:42;;;;;;;25.10;18.13;;;7.80;52.90;;;;;;5006819;28;20479;-60
2021/03/18 06:43:10;;;;;;;27.70;17.45;;;7.70;53.00;;;;;;4993574;28;20033;-60
2021/03/18 06:45:44;;;;;;;25.92;17.25;;;7.60;53.20;;;;;;5007810;28;20108;-61
2021/03/18 06:48:13;;;;;;;25.95;17.75;;;7.70;53.30;;;;;;5005775;28;20050;-61
2021/03/18 06:50:43;;;;;;;24.00;17.25;;;7.70;53.30;;;;;;4994599;28;20113;-61
2021/03/18 06:53:36;;;;;;;27.92;17.55;;;7.80;52.90;;;;;;4991414;28;20034;-69
2021/03/18 06:56:02;;;;;;;29.10;17.58;;;7.80;52.70;;;;;;4994371;28;20034;-61
2021/03/18 06:58:29;;;;;;;25.38;16.23;;;7.90;52.40;;;;;;4993183;28;20033;-61
2021/03/18 07:01:14;;;;;;;24.23;16.17;;;8.00;52.00;;;;;;4992116;28;20486;-62
2021/03/18 07:03:40;;;;;;;26.35;16.52;;;8.00;52.20;;;;;;4991810;28;20483;-61
2021/03/18 07:06:09;;;;;;;24.85;16.98;;;8.10;51.90;;;;;;4993059;28;20093;-62
2021/03/18 07:08:40;;;;;;;23.30;16.23;;;8.10;51.70;;;;;;4993257;28;20354;-61
2021/03/18 07:11:18;;;;;;;23.38;17.02;;;8.10;51.30;;;;;;4989992;28;20022;-61
2021/03/18 07:13:44;;;;;;;26.80;16.10;;;8.20;51.40;;;;;;4992762;28;20022;-61
2021/03/18 07:16:14;;;;;;;24.35;16.90;;;8.40;51.30;;;;;;4992580;28;20038;-63
2021/03/18 07:18:40;;;;;;;24.77;17.70;;;8.70;50.70;;;;;;4992589;28;20062;-62
2021/03/18 07:21:16;;;;;;;25.85;22.30;;;9.80;49.50;;;;;;4995732;28;20077;-61
2021/03/18 07:23:46;;;;;;;21.80;15.82;;;12.40;43.60;;;;;;4997212;28;20022;-62
2021/03/18 07:26:18;;;;;;;23.92;17.55;;;14.30;38.60;;;;;;4994728;28;20120;-65
2021/03/18 07:29:13;;;;;;;23.00;19.95;;;13.80;39.40;;;;;;4993171;28;20061;-60
2021/03/18 07:31:40;;;;;;;21.88;16.33;;;14.70;36.30;;;;;;4999623;28;20040;-62
2021/03/18 07:34:07;;;;;;;25.00;16.73;;;13.70;37.20;;;;;;4997994;28;20026;-61
2021/03/18 07:36:34;;;;;;;19.30;15.35;;;13.40;39.00;;;;;;4995429;28;20113;-66
2021/03/18 07:39:00;;;;;;;23.02;16.50;;;13.40;38.20;;;;;;5002009;28;20026;-62
2021/03/18 07:41:26;;;;;;;21.23;16.13;;;12.50;39.10;;;;;;5002133;28;20026;-62
2021/03/18 07:43:52;;;;;;;19.38;15.60;;;12.20;40.80;;;;;;5000953;28;20025;-62
2021/03/18 07:46:20;;;;;;;27.48;16.92;;;11.90;41.00;;;;;;4999992;28;20490;-62
2021/03/18 07:48:51;;;;;;;22.42;16.92;;;11.60;42.20;;;;;;4999071;28;20026;-62
2021/03/18 07:51:19;;;;;;;23.35;17.27;;;11.20;43.10;;;;;;4991707;28;20109;-61
2021/03/18 07:53:54;;;;;;;23.65;16.80;;;10.80;44.30;;;;;;4981122;28;20050;-63
2021/03/18 07:56:20;;;;;;;24.35;15.73;;;10.30;45.50;;;;;;4988942;28;20045;-61
2021/03/18 07:59:05;;;;;;;24.60;17.33;;;10.10;46.20;;;;;;5001437;28;20060;-62
2021/03/18 08:01:38;;;;;;;24.05;15.80;;;9.80;46.80;;;;;;4993899;28;20759;-61
2021/03/18 08:04:38;;;;;;;20.50;15.07;;;9.50;47.90;;;;;;4984298;28;20065;-62
2021/03/18 08:07:05;;;;;;;19.40;14.52;;;9.40;48.40;;;;;;4991926;28;20023;-63
2021/03/18 08:09:30;;;;;;;21.17;15.18;;;9.30;48.70;;;;;;5001834;28;20113;-62
2021/03/18 08:11:56;;;;;;;22.15;16.35;;;9.40;48.50;;;;;;5002145;28;20057;-63
2021/03/18 08:14:27;;;;;;;23.50;16.65;;;9.50;48.80;;;;;;4997672;28;20030;-63
2021/03/18 08:16:53;;;;;;;21.23;14.82;;;10.00;48.40;;;;;;4992484;28;20026;-61
2021/03/18 08:19:20;;;;;;;20.17;14.20;;;10.10;47.50;;;;;;4992591;28;20023;-62
2021/03/18 08:21:53;;;;;;;24.38;21.33;;;9.90;47.80;;;;;;4993523;28;20471;-62
2021/03/18 08:24:30;;;;;;;17.88;14.15;;;11.30;48.60;;;;;;4985659;28;20153;-62
2021/03/18 08:27:03;;;;;;;19.35;12.85;;;15.00;41.10;;;;;;4991250;28;20030;-62
2021/03/18 08:29:45;;;;;;;14.82;10.40;;;15.00;36.60;;;;;;4982107;28;20041;-61
2021/03/18 08:32:26;;;;;;;13.73;10.43;;;13.20;39.10;;;;;;4980293;28;20039;-62
2021/03/18 08:34:55;;;;;;;16.45;10.30;;;11.50;43.20;;;;;;4975679;28;20122;-61
2021/03/18 08:37:34;;;;;;;14.68;10.82;;;10.50;45.30;;;;;;4992143;28;20046;-62
2021/03/18 08:40:07;;;;;;;16.67;11.75;;;10.20;46.80;;;;;;4979251;28;20125;-66
2021/03/18 08:42:59;;;;;;;19.92;11.98;;;9.70;48.50;;;;;;4991524;28;20018;-64
2021/03/18 08:45:25;;;;;;;17.85;11.98;;;9.20;49.90;;;;;;5000766;28;20034;-61
2021/03/18 08:47:55;;;;;;;17.70;12.25;;;9.00;50.20;;;;;;4999493;28;20083;-62
2021/03/18 08:50:23;;;;;;;15.90;11.02;;;8.90;50.10;;;;;;4993526;28;20031;-60
2021/03/18 08:52:51;;;;;;;15.23;11.15;;;9.10;50.10;;;;;;4986188;28;20073;-67
2021/03/18 08:55:39;;;;;;;17.38;10.88;;;9.30;49.70;;;;;;4989901;28;20037;-61
2021/03/18 08:58:06;;;;;;;18.23;11.27;;;9.30;49.50;;;;;;4987772;28;20138;-65
2021/03/18 09:01:22;;;;;;;19.13;11.63;;;9.50;49.40;;;;;;4981197;28;20515;-67
2021/03/18 09:03:56;;;;;;;16.52;10.48;;;9.70;48.80;;;;;;4980290;28;20113;-63
2021/03/18 09:06:22;;;;;;;15.43;10.65;;;9.80;47.40;;;;;;4988769;28;20054;-68
2021/03/18 09:08:49;;;;;;;15.55;10.73;;;10.00;46.10;;;;;;4983616;28;20360;-64
2021/03/18 09:11:23;;;;;;;16.80;10.02;;;10.00;46.30;;;;;;4988990;28;20388;-63
2021/03/18 09:13:49;;;;;;;13.13;10.40;;;10.40;45.90;;;;;;4990643;28;20026;-63
2021/03/18 09:16:20;;;;;;;14.13;9.77;;;10.50;45.70;;;;;;4989315;28;20104;-64
2021/03/18 09:18:47;;;;;;;15.80;10.52;;;10.20;45.60;;;;;;4991350;28;20038;-61
2021/03/18 09:21:13;;;;;;;13.18;9.60;;;9.70;46.60;;;;;;4994842;28;20065;-63
2021/03/18 09:23:44;;;;;;;13.65;9.52;;;9.50;47.50;;;;;;4991134;28;20034;-63
2021/03/18 09:26:12;;;;;;;16.60;10.27;;;9.30;47.80;;;;;;4992215;28;20039;-64
2021/03/18 09:31:31;;;;;;;14.23;10.52;;;8.90;48.40;;;;;;4991299;28;20025;-65
2021/03/18 09:33:58;;;;;;;14.20;10.95;;;9.00;48.10;;;;;;4989358;28;20109;-59
2021/03/18 09:36:27;;;;;;;13.80;10.10;;;9.30;48.00;;;;;;4988890;28;20302;-63
2021/03/18 09:38:58;;;;;;;15.48;10.00;;;9.80;46.30;;;;;;4985800;28;20080;-63
2021/03/18 09:41:26;;;;;;;14.20;9.85;;;10.00;45.70;;;;;;4986895;28;20089;-63
2021/03/18 09:44:20;;;;;;;12.38;9.65;;;9.90;46.10;;;;;;4983119;28;20050;-59
2021/03/18 09:47:07;;;;;;;16.58;10.82;;;9.60;46.90;;;;;;4959000;28;20076;-60
2021/03/18 09:49:58;;;;;;;12.82;10.25;;;9.40;47.60;;;;;;4981015;28;20440;-61
2021/03/18 09:52:27;;;;;;;15.90;10.55;;;9.10;47.70;;;;;;4991498;28;20299;-64
2021/03/18 09:54:54;;;;;;;21.08;11.25;;;9.10;47.30;;;;;;4991205;28;20042;-64
2021/03/18 09:57:21;;;;;;;13.40;9.70;;;9.40;47.20;;;;;;5004785;28;20033;-62
2021/03/18 09:59:53;;;;;;;12.38;9.30;;;9.80;46.10;;;;;;4994817;28;20033;-63
2021/03/18 10:02:26;;;;;;;21.40;11.32;;;9.80;44.70;;;;;;4992839;28;20256;-65
2021/03/18 10:04:52;;;;;;;14.73;10.52;;;10.10;44.80;;;;;;4989606;28;20089;-65
2021/03/18 10:07:18;;;;;;;15.00;9.38;;;10.50;43.80;;;;;;4989000;28;20379;-64
2021/03/18 10:09:46;;;;;;;15.27;8.70;;;10.90;42.70;;;;;;4987837;28;20105;-66
2021/03/18 10:12:14;;;;;;;18.25;8.30;;;11.10;42.20;;;;;;4988009;28;20117;-67
2021/03/18 10:14:43;;;;;;;10.73;7.13;;;11.10;40.20;;;;;;4989588;28;20026;-65
2021/03/18 10:17:16;;;;;;;12.73;7.88;;;10.90;37.90;;;;;;5001412;28;20105;-72
2021/03/18 10:20:01;;;;;;;11.70;7.47;;;11.00;37.80;;;;;;4994292;28;20029;-63
2021/03/18 10:22:37;;;;;;;9.38;6.45;;;11.10;36.80;;;;;;4994226;28;20033;-65
2021/03/18 10:25:05;;;;;;;10.07;7.22;;;11.10;36.10;;;;;;4995455;28;20109;-69
2021/03/18 10:27:36;;;;;;;11.75;7.47;;;11.00;36.10;;;;;;4999620;28;20130;-72
2021/03/18 10:30:10;;;;;;;11.10;7.13;;;10.90;36.10;;;;;;4993001;28;20027;-65
2021/03/18 10:32:38;;;;;;;12.75;6.35;;;11.00;36.80;;;;;;4993854;28;20057;-68
2021/03/18 10:35:06;;;;;;;9.63;6.68;;;11.20;36.00;;;;;;4993889;28;20158;-67
2021/03/18 10:37:38;;;;;;;11.43;7.30;;;11.20;36.10;;;;;;4995437;28;20209;-72
2021/03/18 10:40:17;;;;;;;11.52;6.75;;;11.20;35.20;;;;;;4993176;28;20030;-70
2021/03/18 10:42:46;;;;;;;11.07;6.13;;;11.30;34.30;;;;;;4995415;28;20037;-72
2021/03/18 10:45:25;;;;;;;14.15;7.75;;;11.40;34.40;;;;;;4987756;28;20045;-66
2021/03/18 10:47:53;;;;;;;11.68;7.05;;;11.50;34.20;;;;;;4988260;28;20038;-67
2021/03/18 10:50:25;;;;;;;9.98;6.57;;;11.60;34.10;;;;;;4991053;28;20026;-64
2021/03/18 10:52:56;;;;;;;12.60;6.30;;;11.70;34.10;;;;;;4990210;28;20062;-64
2021/03/18 10:55:28;;;;;;;11.25;6.70;;;11.70;34.00;;;;;;4987217;28;20062;-74
2021/03/18 10:57:56;;;;;;;17.52;8.73;;;11.70;33.60;;;;;;4973747;28;20077;-70
2021/03/18 11:00:22;;;;;;;11.23;7.03;;;11.60;33.40;;;;;;4987012;28;20427;-67
2021/03/18 11:03:04;;;;;;;11.63;6.45;;;11.30;33.10;;;;;;4992622;28;20113;-67
2021/03/18 11:05:32;;;;;;;10.32;5.28;;;11.20;33.00;;;;;;4980716;28;20047;-68
2021/03/18 11:07:59;;;;;;;9.70;5.65;;;11.30;33.00;;;;;;5002532;28;20046;-68
2021/03/18 11:10:30;;;;;;;11.13;5.15;;;11.60;33.00;;;;;;4995438;28;20257;-66
2021/03/18 11:13:03;;;;;;;9.27;5.55;;;11.80;32.30;;;;;;4994095;28;20490;-61
2021/03/18 11:15:56;;;;;;;8.23;5.30;;;11.70;31.10;;;;;;4993709;28;20034;-60
2021/03/18 11:18:39;;;;;;;10.93;5.22;;;11.40;31.20;;;;;;4983701;28;20112;-61
2021/03/18 11:21:26;;;;;;;9.15;5.43;;;11.00;32.00;;;;;;4992982;28;20030;-57
2021/03/18 11:23:55;;;;;;;8.68;5.28;;;10.80;32.70;;;;;;4994121;28;20142;-65
2021/03/18 11:26:25;;;;;;;7.03;4.75;;;10.90;33.30;;;;;;4981674;28;20104;-72
2021/03/18 11:28:55;;;;;;;8.38;5.35;;;10.90;33.10;;;;;;4988812;28;20329;-68
2021/03/18 11:31:23;;;;;;;9.98;6.70;;;11.10;32.70;;;;;;4987157;28;20036;-63
2021/03/18 11:33:48;;;;;;;9.02;6.03;;;11.00;33.10;;;;;;4986172;28;20822;-62
2021/03/18 11:36:15;;;;;;;9.60;4.97;;;11.30;33.10;;;;;;4986514;28;20030;-69
2021/03/18 11:38:42;;;;;;;7.45;4.30;;;11.40;32.30;;;;;;4990602;28;20022;-61
2021/03/18 11:41:07;;;;;;;6.75;4.93;;;11.50;31.00;;;;;;4991268;28;20092;-58
2021/03/18 11:46:20;;;;;;;12.13;4.60;;;11.70;31.30;;;;;;4975230;28;20033;-66
2021/03/18 11:48:46;;;;;;;7.75;4.30;;;11.80;30.70;;;;;;4985526;28;20049;-66
2021/03/18 11:51:11;;;;;;;6.43;4.43;;;12.00;30.30;;;;;;4993046;28;20413;-68
2021/03/18 11:53:37;;;;;;;8.25;4.15;;;12.10;30.00;;;;;;4992295;28;20030;-68
2021/03/18 11:56:03;;;;;;;8.35;4.70;;;12.20;29.60;;;;;;4982266;28;20026;-68
2021/03/18 11:58:28;;;;;;;5.82;3.78;;;11.90;29.70;;;;;;4999000;28;20022;-68
2021/03/18 12:00:54;;;;;;;8.85;4.20;;;11.80;29.90;;;;;;4985533;28;20686;-77
2021/03/18 12:03:20;;;;;;;5.45;3.47;;;11.80;29.70;;;;;;4996872;28;20030;-65
2021/03/18 12:05:46;;;;;;;6.43;4.00;;;12.00;29.10;;;;;;4987345;28;20097;-69
2021/03/18 12:08:12;;;;;;;7.72;4.38;;;12.10;29.40;;;;;;4989256;28;20476;-70
2021/03/18 12:10:39;;;;;;;7.15;3.88;;;12.40;28.50;;;;;;4989721;28;20118;-67
2021/03/18 12:13:05;;;;;;;14.68;6.22;;;12.50;28.90;;;;;;4991124;28;20027;-70
2021/03/18 12:15:31;;;;;;;8.02;4.70;;;12.40;28.90;;;;;;4995887;28;20488;-67
2021/03/18 12:17:57;;;;;;;6.63;4.47;;;12.30;28.80;;;;;;4992899;28;20101;-71
2021/03/18 12:20:23;;;;;;;5.90;4.20;;;12.30;29.30;;;;;;4997505;28;20420;-71
2021/03/18 12:22:50;;;;;;;7.45;4.22;;;12.30;28.70;;;;;;4983763;28;20061;-71
2021/03/18 12:25:18;;;;;;;10.25;3.78;;;12.10;29.10;;;;;;4988832;28;20034;-63
2021/03/18 12:27:44;;;;;;;6.80;4.22;;;12.10;28.70;;;;;;4991249;28;20031;-67
2021/03/18 12:30:13;;;;;;;11.50;3.97;;;11.90;28.90;;;;;;4955348;28;20042;-74
2021/03/18 12:32:40;;;;;;;5.95;3.65;;;11.80;29.70;;;;;;4977885;28;20019;-69
2021/03/18 12:35:07;;;;;;;9.35;5.22;;;11.80;28.90;;;;;;4986426;28;20018;-64
2021/03/18 12:37:34;;;;;;;9.10;5.40;;;11.70;29.60;;;;;;4991218;28;20065;-70
2021/03/18 12:40:02;;;;;;;45.67;17.23;;;12.00;29.60;;;;;;4986150;28;20058;-71
2021/03/18 12:42:29;;;;;;;10.07;4.22;;;12.00;29.80;;;;;;4995417;28;20037;-70
2021/03/18 12:44:55;;;;;;;11.60;4.90;;;12.00;29.60;;;;;;5000299;28;20014;-73
2021/03/18 12:47:20;;;;;;;8.13;4.88;;;12.00;29.60;;;;;;4996588;28;20042;-73
2021/03/18 12:49:46;;;;;;;9.98;4.60;;;11.90;29.80;;;;;;4994092;28;20037;-73
2021/03/18 12:52:12;;;;;;;8.00;4.50;;;11.80;29.70;;;;;;4991219;28;20030;-65
2021/03/18 12:54:39;;;;;;;7.22;5.00;;;11.80;29.90;;;;;;4999723;28;20031;-65
2021/03/18 12:57:05;;;;;;;7.82;4.40;;;11.90;30.10;;;;;;5000067;28;20042;-66
2021/03/18 12:59:31;;;;;;;9.00;4.13;;;12.20;29.30;;;;;;4993279;28;20026;-75